sensor_id;sensor_type;location;lat;lon;timestamp;temperature;humidity
73149;SHT30;61346;48.930;2.266;2022-08-04T00:00:28;27.55;48.62
73149;SHT30;61346;48.930;2.266;2022-08-04T00:03:21;27.53;49.42
73149;SHT30;61346;48.930;2.266;2022-08-04T00:08:33;27.45;48.76
73149;SHT30;61346;48.930;2.266;2022-08-04T00:11:01;27.46;48.80
73149;SHT30;61346;48.930;2.266;2022-08-04T00:13:30;27.45;48.89
73149;SHT30;61346;48.930;2.266;2022-08-04T00:16:03;27.50;48.96
73149;SHT30;61346;48.930;2.266;2022-08-04T00:21:04;27.49;50.12
73149;SHT30;61346;48.930;2.266;2022-08-04T00:23:33;27.39;50.53
73149;SHT30;61346;48.930;2.266;2022-08-04T00:26:01;27.29;50.38
73149;SHT30;61346;48.930;2.266;2022-08-04T00:28:27;27.21;49.98
73149;SHT30;61346;48.930;2.266;2022-08-04T00:30:53;27.14;50.59
73149;SHT30;61346;48.930;2.266;2022-08-04T00:33:19;27.11;50.18
73149;SHT30;61346;48.930;2.266;2022-08-04T00:35:46;27.05;50.08
73149;SHT30;61346;48.930;2.266;2022-08-04T00:38:22;27.02;50.75
73149;SHT30;61346;48.930;2.266;2022-08-04T00:44:08;26.97;50.50
73149;SHT30;61346;48.930;2.266;2022-08-04T00:46:56;26.90;50.64
73149;SHT30;61346;48.930;2.266;2022-08-04T01:01:02;26.55;51.73
73149;SHT30;61346;48.930;2.266;2022-08-04T01:11:46;26.33;53.16
73149;SHT30;61346;48.930;2.266;2022-08-04T01:17:24;26.22;53.47
73149;SHT30;61346;48.930;2.266;2022-08-04T01:19:59;26.17;54.38
73149;SHT30;61346;48.930;2.266;2022-08-04T01:28:14;26.09;53.84
73149;SHT30;61346;48.930;2.266;2022-08-04T01:31:22;26.01;54.28
73149;SHT30;61346;48.930;2.266;2022-08-04T01:33:58;25.94;54.06
73149;SHT30;61346;48.930;2.266;2022-08-04T01:36:32;25.94;53.97
73149;SHT30;61346;48.930;2.266;2022-08-04T01:39:02;25.94;53.71
73149;SHT30;61346;48.930;2.266;2022-08-04T01:41:51;25.97;53.57
73149;SHT30;61346;48.930;2.266;2022-08-04T01:44:39;25.95;53.89
73149;SHT30;61346;48.930;2.266;2022-08-04T01:47:10;25.91;54.00
73149;SHT30;61346;48.930;2.266;2022-08-04T01:49:49;25.90;53.99
73149;SHT30;61346;48.930;2.266;2022-08-04T01:52:19;25.85;53.96
73149;SHT30;61346;48.930;2.266;2022-08-04T01:55:14;25.84;54.40
73149;SHT30;61346;48.930;2.266;2022-08-04T01:57:50;25.74;60.05
73149;SHT30;61346;48.930;2.266;2022-08-04T02:00:23;25.63;57.52
73149;SHT30;61346;48.930;2.266;2022-08-04T02:02:54;25.56;56.27
73149;SHT30;61346;48.930;2.266;2022-08-04T02:05:22;25.51;56.14
73149;SHT30;61346;48.930;2.266;2022-08-04T02:08:08;25.47;55.14
73149;SHT30;61346;48.930;2.266;2022-08-04T02:16:28;25.35;56.66
73149;SHT30;61346;48.930;2.266;2022-08-04T02:19:27;25.29;56.20
73149;SHT30;61346;48.930;2.266;2022-08-04T02:22:21;25.29;55.26
73149;SHT30;61346;48.930;2.266;2022-08-04T02:25:04;25.32;55.59
73149;SHT30;61346;48.930;2.266;2022-08-04T02:28:14;25.35;55.31
73149;SHT30;61346;48.930;2.266;2022-08-04T02:33:38;25.32;55.12
73149;SHT30;61346;48.930;2.266;2022-08-04T02:36:19;25.27;55.65
73149;SHT30;61346;48.930;2.266;2022-08-04T02:39:14;25.25;55.83
73149;SHT30;61346;48.930;2.266;2022-08-04T02:41:54;25.18;56.05
73149;SHT30;61346;48.930;2.266;2022-08-04T02:45:03;25.08;55.44
73149;SHT30;61346;48.930;2.266;2022-08-04T02:47:47;25.08;55.41
73149;SHT30;61346;48.930;2.266;2022-08-04T02:50:23;25.11;57.26
73149;SHT30;61346;48.930;2.266;2022-08-04T02:53:07;25.05;56.69
73149;SHT30;61346;48.930;2.266;2022-08-04T02:55:40;24.98;56.48
73149;SHT30;61346;48.930;2.266;2022-08-04T02:58:11;24.95;56.86
73149;SHT30;61346;48.930;2.266;2022-08-04T03:00:49;24.92;57.94
73149;SHT30;61346;48.930;2.266;2022-08-04T03:03:25;24.91;57.12
73149;SHT30;61346;48.930;2.266;2022-08-04T03:06:22;24.92;58.56
73149;SHT30;61346;48.930;2.266;2022-08-04T03:09:17;24.85;57.26
73149;SHT30;61346;48.930;2.266;2022-08-04T03:15:17;24.92;56.20
73149;SHT30;61346;48.930;2.266;2022-08-04T03:18:30;24.95;57.34
73149;SHT30;61346;48.930;2.266;2022-08-04T03:27:26;24.61;59.54
73149;SHT30;61346;48.930;2.266;2022-08-04T03:30:17;24.57;58.31
73149;SHT30;61346;48.930;2.266;2022-08-04T03:38:26;24.56;57.81
73149;SHT30;61346;48.930;2.266;2022-08-04T03:41:26;24.57;58.07
73149;SHT30;61346;48.930;2.266;2022-08-04T03:53:02;24.51;57.45
73149;SHT30;61346;48.930;2.266;2022-08-04T04:01:43;24.70;56.18
73149;SHT30;61346;48.930;2.266;2022-08-04T04:07:24;24.57;56.99
73149;SHT30;61346;48.930;2.266;2022-08-04T04:29:54;24.36;58.05
73149;SHT30;61346;48.930;2.266;2022-08-04T04:32:56;24.32;58.72
73149;SHT30;61346;48.930;2.266;2022-08-04T04:35:57;24.30;58.11
73149;SHT30;61346;48.930;2.266;2022-08-04T04:39:00;24.26;58.33
73149;SHT30;61346;48.930;2.266;2022-08-04T04:41:49;24.26;58.27
73149;SHT30;61346;48.930;2.266;2022-08-04T04:47:49;24.12;59.91
73149;SHT30;61346;48.930;2.266;2022-08-04T04:56:02;23.94;59.96
73149;SHT30;61346;48.930;2.266;2022-08-04T04:58:32;23.88;60.16
73149;SHT30;61346;48.930;2.266;2022-08-04T05:15:03;23.67;60.18
73149;SHT30;61346;48.930;2.266;2022-08-04T05:17:44;23.67;60.26
73149;SHT30;61346;48.930;2.266;2022-08-04T05:20:44;23.64;59.50
73149;SHT30;61346;48.930;2.266;2022-08-04T05:23:31;23.64;59.42
73149;SHT30;61346;48.930;2.266;2022-08-04T05:26:15;23.61;59.53
73149;SHT30;61346;48.930;2.266;2022-08-04T05:29:11;23.58;60.65
73149;SHT30;61346;48.930;2.266;2022-08-04T05:31:45;23.54;60.76
73149;SHT30;61346;48.930;2.266;2022-08-04T05:34:41;23.50;59.83
73149;SHT30;61346;48.930;2.266;2022-08-04T05:37:10;23.47;60.75
73149;SHT30;61346;48.930;2.266;2022-08-04T06:25:07;24.09;58.30
73149;SHT30;61346;48.930;2.266;2022-08-04T06:31:24;24.17;58.08
73149;SHT30;61346;48.930;2.266;2022-08-04T06:38:02;24.30;58.01
73149;SHT30;61346;48.930;2.266;2022-08-04T06:40:35;24.39;57.57
73149;SHT30;61346;48.930;2.266;2022-08-04T06:43:34;24.46;57.61
73149;SHT30;61346;48.930;2.266;2022-08-04T06:46:08;24.49;57.35
73149;SHT30;61346;48.930;2.266;2022-08-04T06:48:54;24.53;57.36
73149;SHT30;61346;48.930;2.266;2022-08-04T06:51:49;24.65;57.36
73149;SHT30;61346;48.930;2.266;2022-08-04T07:01:45;25.06;56.92
73149;SHT30;61346;48.930;2.266;2022-08-04T07:04:58;25.14;56.42
73149;SHT30;61346;48.930;2.266;2022-08-04T07:07:35;25.27;56.32
73149;SHT30;61346;48.930;2.266;2022-08-04T07:16:20;25.42;55.88
73149;SHT30;61346;48.930;2.266;2022-08-04T07:19:12;25.35;55.96
73149;SHT30;61346;48.930;2.266;2022-08-04T07:21:39;25.36;56.51
73149;SHT30;61346;48.930;2.266;2022-08-04T07:24:05;25.33;56.09
73149;SHT30;61346;48.930;2.266;2022-08-04T07:26:31;25.26;56.29
73149;SHT30;61346;48.930;2.266;2022-08-04T07:32:31;25.32;56.26
73149;SHT30;61346;48.930;2.266;2022-08-04T07:35:20;25.43;56.26
73149;SHT30;61346;48.930;2.266;2022-08-04T07:37:50;25.54;56.18
73149;SHT30;61346;48.930;2.266;2022-08-04T07:40:21;25.56;56.19
73149;SHT30;61346;48.930;2.266;2022-08-04T07:42:47;25.46;57.57
73149;SHT30;61346;48.930;2.266;2022-08-04T07:45:17;25.15;59.36
73149;SHT30;61346;48.930;2.266;2022-08-04T07:47:52;24.96;60.02
73149;SHT30;61346;48.930;2.266;2022-08-04T07:50:18;24.89;59.26
73149;SHT30;61346;48.930;2.266;2022-08-04T07:52:50;25.05;58.54
73149;SHT30;61346;48.930;2.266;2022-08-04T07:55:15;25.26;58.05
73149;SHT30;61346;48.930;2.266;2022-08-04T07:57:44;25.46;57.82
73149;SHT30;61346;48.930;2.266;2022-08-04T08:00:19;25.64;57.54
73149;SHT30;61346;48.930;2.266;2022-08-04T08:02:53;25.70;57.15
73149;SHT30;61346;48.930;2.266;2022-08-04T08:05:19;25.69;56.91
73149;SHT30;61346;48.930;2.266;2022-08-04T08:07:49;25.74;56.61
73149;SHT30;61346;48.930;2.266;2022-08-04T08:10:15;25.67;56.94
73149;SHT30;61346;48.930;2.266;2022-08-04T08:12:41;25.50;57.11
73149;SHT30;61346;48.930;2.266;2022-08-04T08:15:09;25.42;57.26
73149;SHT30;61346;48.930;2.266;2022-08-04T08:17:35;25.42;57.33
73149;SHT30;61346;48.930;2.266;2022-08-04T08:20:01;25.37;57.81
73149;SHT30;61346;48.930;2.266;2022-08-04T08:22:29;25.33;57.47
73149;SHT30;61346;48.930;2.266;2022-08-04T08:24:55;25.39;58.00
73149;SHT30;61346;48.930;2.266;2022-08-04T08:27:21;25.36;58.24
73149;SHT30;61346;48.930;2.266;2022-08-04T08:29:48;25.42;57.90
73149;SHT30;61346;48.930;2.266;2022-08-04T08:32:21;25.51;58.41
73149;SHT30;61346;48.930;2.266;2022-08-04T08:34:46;25.63;58.17
73149;SHT30;61346;48.930;2.266;2022-08-04T08:37:16;25.69;57.40
73149;SHT30;61346;48.930;2.266;2022-08-04T08:39:58;25.81;57.22
73149;SHT30;61346;48.930;2.266;2022-08-04T08:56:56;26.35;56.42
73149;SHT30;61346;48.930;2.266;2022-08-04T09:00:17;26.33;56.81
73149;SHT30;61346;48.930;2.266;2022-08-04T09:06:03;26.32;56.91
73149;SHT30;61346;48.930;2.266;2022-08-04T09:10:53;26.45;57.08
73149;SHT30;61346;48.930;2.266;2022-08-04T09:13:25;26.47;56.69
73149;SHT30;61346;48.930;2.266;2022-08-04T09:18:36;26.61;56.49
73149;SHT30;61346;48.930;2.266;2022-08-04T09:21:37;26.60;56.94
73149;SHT30;61346;48.930;2.266;2022-08-04T09:26:57;26.70;55.98
73149;SHT30;61346;48.930;2.266;2022-08-04T09:35:22;27.14;55.50
73149;SHT30;61346;48.930;2.266;2022-08-04T09:40:47;27.49;54.85
73149;SHT30;61346;48.930;2.266;2022-08-04T09:43:35;27.66;54.41
73149;SHT30;61346;48.930;2.266;2022-08-04T09:46:21;27.66;54.37
73149;SHT30;61346;48.930;2.266;2022-08-04T09:56:57;27.32;54.99
73149;SHT30;61346;48.930;2.266;2022-08-04T10:02:35;27.55;54.97
73149;SHT30;61346;48.930;2.266;2022-08-04T10:05:06;27.63;54.53
73149;SHT30;61346;48.930;2.266;2022-08-04T10:10:35;27.96;54.06
73149;SHT30;61346;48.930;2.266;2022-08-04T10:16:52;28.24;53.41
73149;SHT30;61346;48.930;2.266;2022-08-04T10:19:26;28.21;52.89
73149;SHT30;61346;48.930;2.266;2022-08-04T10:25:33;27.92;53.38
73149;SHT30;61346;48.930;2.266;2022-08-04T10:28:08;27.82;53.43
73149;SHT30;61346;48.930;2.266;2022-08-04T11:17:28;28.75;51.53
73149;SHT30;61346;48.930;2.266;2022-08-04T11:20:11;28.70;51.76
73149;SHT30;61346;48.930;2.266;2022-08-04T11:22:43;28.75;51.89
73149;SHT30;61346;48.930;2.266;2022-08-04T11:25:28;28.93;51.71
73149;SHT30;61346;48.930;2.266;2022-08-04T11:28:03;29.11;50.97
73149;SHT30;61346;48.930;2.266;2022-08-04T11:30:42;29.23;50.91
73149;SHT30;61346;48.930;2.266;2022-08-04T11:36:29;29.39;50.62
73149;SHT30;61346;48.930;2.266;2022-08-04T11:39:06;29.54;50.29
73149;SHT30;61346;48.930;2.266;2022-08-04T11:41:56;29.65;49.92
73149;SHT30;61346;48.930;2.266;2022-08-04T11:44:55;29.75;49.15
73149;SHT30;61346;48.930;2.266;2022-08-04T11:47:26;29.73;49.10
73149;SHT30;61346;48.930;2.266;2022-08-04T11:50:07;29.66;49.59
73149;SHT30;61346;48.930;2.266;2022-08-04T11:52:43;29.76;49.69
73149;SHT30;61346;48.930;2.266;2022-08-04T11:55:20;29.97;49.03
73149;SHT30;61346;48.930;2.266;2022-08-04T11:57:50;30.13;48.97
73149;SHT30;61346;48.930;2.266;2022-08-04T12:00:17;30.30;48.83
73149;SHT30;61346;48.930;2.266;2022-08-04T12:03:06;30.55;48.26
73149;SHT30;61346;48.930;2.266;2022-08-04T12:14:12;35.38;41.84
73149;SHT30;61346;48.930;2.266;2022-08-04T12:16:49;35.07;40.08
73149;SHT30;61346;48.930;2.266;2022-08-04T12:19:27;34.55;40.30
73149;SHT30;61346;48.930;2.266;2022-08-04T12:21:56;34.17;41.25
73149;SHT30;61346;48.930;2.266;2022-08-04T12:24:34;33.81;41.81
73149;SHT30;61346;48.930;2.266;2022-08-04T12:27:07;33.86;42.96
73149;SHT30;61346;48.930;2.266;2022-08-04T12:29:36;34.08;41.98
73149;SHT30;61346;48.930;2.266;2022-08-04T12:32:15;34.32;41.44
73149;SHT30;61346;48.930;2.266;2022-08-04T12:34:48;34.44;40.97
73149;SHT30;61346;48.930;2.266;2022-08-04T12:37:50;34.53;40.63
73149;SHT30;61346;48.930;2.266;2022-08-04T12:40:30;34.42;40.51
73149;SHT30;61346;48.930;2.266;2022-08-04T12:43:51;34.17;40.95
73149;SHT30;61346;48.930;2.266;2022-08-04T12:46:04;34.01;41.32
73149;SHT30;61346;48.930;2.266;2022-08-04T12:48:31;33.89;41.06
73149;SHT30;61346;48.930;2.266;2022-08-04T12:50:57;33.86;41.85
73149;SHT30;61346;48.930;2.266;2022-08-04T12:53:31;33.78;41.87
73149;SHT30;61346;48.930;2.266;2022-08-04T12:55:57;33.83;41.96
73149;SHT30;61346;48.930;2.266;2022-08-04T12:58:25;33.94;40.81
73149;SHT30;61346;48.930;2.266;2022-08-04T13:01:05;34.92;39.84
73149;SHT30;61346;48.930;2.266;2022-08-04T13:03:40;35.03;39.59
73149;SHT30;61346;48.930;2.266;2022-08-04T13:06:09;34.78;39.97
73149;SHT30;61346;48.930;2.266;2022-08-04T13:08:37;34.37;40.19
73149;SHT30;61346;48.930;2.266;2022-08-04T13:11:07;34.08;40.45
73149;SHT30;61346;48.930;2.266;2022-08-04T13:13:52;34.02;40.67
73149;SHT30;61346;48.930;2.266;2022-08-04T13:16:27;33.96;39.99
73149;SHT30;61346;48.930;2.266;2022-08-04T13:18:54;33.67;40.50
73149;SHT30;61346;48.930;2.266;2022-08-04T13:21:21;33.45;41.29
73149;SHT30;61346;48.930;2.266;2022-08-04T13:23:55;33.43;41.61
73149;SHT30;61346;48.930;2.266;2022-08-04T13:26:23;33.62;41.56
73149;SHT30;61346;48.930;2.266;2022-08-04T13:28:51;33.84;41.17
73149;SHT30;61346;48.930;2.266;2022-08-04T13:31:21;33.97;41.04
73149;SHT30;61346;48.930;2.266;2022-08-04T13:34:04;34.00;40.73
73149;SHT30;61346;48.930;2.266;2022-08-04T13:36:33;34.14;40.63
73149;SHT30;61346;48.930;2.266;2022-08-04T13:39:14;34.28;40.50
73149;SHT30;61346;48.930;2.266;2022-08-04T13:41:47;34.42;40.66
73149;SHT30;61346;48.930;2.266;2022-08-04T13:44:20;34.63;40.24
73149;SHT30;61346;48.930;2.266;2022-08-04T13:46:49;34.78;39.38
73149;SHT30;61346;48.930;2.266;2022-08-04T13:49:19;34.66;39.27
73149;SHT30;61346;48.930;2.266;2022-08-04T13:51:48;34.48;39.76
73149;SHT30;61346;48.930;2.266;2022-08-04T13:54:20;34.59;39.68
73149;SHT30;61346;48.930;2.266;2022-08-04T13:56:49;34.70;39.61
73149;SHT30;61346;48.930;2.266;2022-08-04T13:59:16;34.99;39.42
73149;SHT30;61346;48.930;2.266;2022-08-04T14:01:46;35.13;38.15
73149;SHT30;61346;48.930;2.266;2022-08-04T14:04:26;35.34;38.04
73149;SHT30;61346;48.930;2.266;2022-08-04T14:07:12;35.35;37.76
73149;SHT30;61346;48.930;2.266;2022-08-04T14:09:39;35.38;37.55
73149;SHT30;61346;48.930;2.266;2022-08-04T14:12:13;35.27;38.40
73149;SHT30;61346;48.930;2.266;2022-08-04T14:14:47;35.47;37.83
73149;SHT30;61346;48.930;2.266;2022-08-04T14:17:17;35.68;38.01
73149;SHT30;61346;48.930;2.266;2022-08-04T14:25:12;36.44;37.10
73149;SHT30;61346;48.930;2.266;2022-08-04T14:27:51;36.85;36.65
73149;SHT30;61346;48.930;2.266;2022-08-04T14:30:36;37.00;35.77
73149;SHT30;61346;48.930;2.266;2022-08-04T14:33:10;37.08;35.42
73149;SHT30;61346;48.930;2.266;2022-08-04T14:35:36;37.73;33.89
73149;SHT30;61346;48.930;2.266;2022-08-04T14:38:08;38.23;32.82
73149;SHT30;61346;48.930;2.266;2022-08-04T14:40:37;38.00;34.28
73149;SHT30;61346;48.930;2.266;2022-08-04T14:43:05;38.57;32.66
73149;SHT30;61346;48.930;2.266;2022-08-04T14:45:37;39.22;32.79
73149;SHT30;61346;48.930;2.266;2022-08-04T14:48:08;39.28;32.78
73149;SHT30;61346;48.930;2.266;2022-08-04T14:50:44;38.74;32.09
73149;SHT30;61346;48.930;2.266;2022-08-04T14:53:21;38.05;33.72
73149;SHT30;61346;48.930;2.266;2022-08-04T14:55:49;38.12;33.90
73149;SHT30;61346;48.930;2.266;2022-08-04T14:58:23;38.16;33.17
73149;SHT30;61346;48.930;2.266;2022-08-04T15:00:50;37.92;33.97
73149;SHT30;61346;48.930;2.266;2022-08-04T15:03:18;37.60;34.43
73149;SHT30;61346;48.930;2.266;2022-08-04T15:05:47;37.20;34.37
73149;SHT30;61346;48.930;2.266;2022-08-04T15:08:13;36.61;34.68
73149;SHT30;61346;48.930;2.266;2022-08-04T15:10:42;35.96;35.57
73149;SHT30;61346;48.930;2.266;2022-08-04T15:13:09;35.65;35.67
73149;SHT30;61346;48.930;2.266;2022-08-04T15:15:39;35.35;36.11
73149;SHT30;61346;48.930;2.266;2022-08-04T15:18:09;35.06;36.57
73149;SHT30;61346;48.930;2.266;2022-08-04T15:20:36;34.79;36.66
73149;SHT30;61346;48.930;2.266;2022-08-04T15:23:06;34.59;37.23
73149;SHT30;61346;48.930;2.266;2022-08-04T15:25:52;34.63;37.30
73149;SHT30;61346;48.930;2.266;2022-08-04T15:28:21;34.46;37.70
73149;SHT30;61346;48.930;2.266;2022-08-04T15:30:48;34.14;38.32
73149;SHT30;61346;48.930;2.266;2022-08-04T15:33:15;33.87;38.51
73149;SHT30;61346;48.930;2.266;2022-08-04T15:35:49;33.52;39.05
73149;SHT30;61346;48.930;2.266;2022-08-04T15:38:57;33.23;39.34
73149;SHT30;61346;48.930;2.266;2022-08-04T15:41:29;32.95;40.12
73149;SHT30;61346;48.930;2.266;2022-08-04T15:49:23;32.12;41.96
73149;SHT30;61346;48.930;2.266;2022-08-04T15:52:00;31.74;43.08
73149;SHT30;61346;48.930;2.266;2022-08-04T15:54:25;31.58;43.10
73149;SHT30;61346;48.930;2.266;2022-08-04T15:56:51;31.47;43.36
73149;SHT30;61346;48.930;2.266;2022-08-04T17:18:54;26.09;92.07
73149;SHT30;61346;48.930;2.266;2022-08-04T17:25:24;26.47;73.05
73149;SHT30;61346;48.930;2.266;2022-08-04T17:28:08;26.56;69.42
73149;SHT30;61346;48.930;2.266;2022-08-04T17:30:41;26.61;69.10
73149;SHT30;61346;48.930;2.266;2022-08-04T17:36:50;27.00;66.58
73149;SHT30;61346;48.930;2.266;2022-08-04T17:39:19;27.21;66.54
73149;SHT30;61346;48.930;2.266;2022-08-04T17:42:01;27.37;65.61
73149;SHT30;61346;48.930;2.266;2022-08-04T17:45:17;27.48;64.54
73149;SHT30;61346;48.930;2.266;2022-08-04T17:47:54;27.62;63.89
73149;SHT30;61346;48.930;2.266;2022-08-04T17:50:30;27.77;63.13
73149;SHT30;61346;48.930;2.266;2022-08-04T17:53:11;27.79;62.66
73149;SHT30;61346;48.930;2.266;2022-08-04T17:55:59;27.76;62.77
73149;SHT30;61346;48.930;2.266;2022-08-04T18:01:24;27.56;62.88
73149;SHT30;61346;48.930;2.266;2022-08-04T18:04:27;27.46;63.21
73149;SHT30;61346;48.930;2.266;2022-08-04T18:13:14;27.27;61.54
73149;SHT30;61346;48.930;2.266;2022-08-04T18:19:22;27.19;60.81
73149;SHT30;61346;48.930;2.266;2022-08-04T18:21:55;27.10;61.13
73149;SHT30;61346;48.930;2.266;2022-08-04T18:24:23;27.07;60.97
73149;SHT30;61346;48.930;2.266;2022-08-04T18:26:51;26.97;61.33
73149;SHT30;61346;48.930;2.266;2022-08-04T18:29:16;26.87;60.88
73149;SHT30;61346;48.930;2.266;2022-08-04T18:32:01;26.77;60.63
73149;SHT30;61346;48.930;2.266;2022-08-04T18:34:48;26.61;60.39
73149;SHT30;61346;48.930;2.266;2022-08-04T18:47:36;26.17;59.42
73149;SHT30;61346;48.930;2.266;2022-08-04T18:50:05;26.14;59.42
73149;SHT30;61346;48.930;2.266;2022-08-04T18:55:20;26.06;59.40
73149;SHT30;61346;48.930;2.266;2022-08-04T18:57:46;26.00;59.23
73149;SHT30;61346;48.930;2.266;2022-08-04T19:00:38;25.90;59.04
73149;SHT30;61346;48.930;2.266;2022-08-04T19:03:42;25.78;59.38
73149;SHT30;61346;48.930;2.266;2022-08-04T19:06:20;25.75;59.39
73149;SHT30;61346;48.930;2.266;2022-08-04T19:09:02;25.67;59.08
73149;SHT30;61346;48.930;2.266;2022-08-04T19:11:37;25.53;58.99
73149;SHT30;61346;48.930;2.266;2022-08-04T19:14:05;25.47;59.32
73149;SHT30;61346;48.930;2.266;2022-08-04T19:16:33;25.40;59.29
73149;SHT30;61346;48.930;2.266;2022-08-04T19:22:26;25.25;59.36
73149;SHT30;61346;48.930;2.266;2022-08-04T19:25:05;25.19;60.03
73149;SHT30;61346;48.930;2.266;2022-08-04T19:27:31;25.14;60.07
73149;SHT30;61346;48.930;2.266;2022-08-04T19:29:59;25.06;60.10
73149;SHT30;61346;48.930;2.266;2022-08-04T19:32:36;25.02;60.56
73149;SHT30;61346;48.930;2.266;2022-08-04T19:35:30;24.94;60.50
73149;SHT30;61346;48.930;2.266;2022-08-04T19:38:07;24.89;60.84
73149;SHT30;61346;48.930;2.266;2022-08-04T19:40:40;24.82;61.14
73149;SHT30;61346;48.930;2.266;2022-08-04T19:43:16;24.77;61.00
73149;SHT30;61346;48.930;2.266;2022-08-04T19:52:56;24.50;61.17
73149;SHT30;61346;48.930;2.266;2022-08-04T19:55:27;24.44;60.87
73149;SHT30;61346;48.930;2.266;2022-08-04T19:58:06;24.37;60.69
73149;SHT30;61346;48.930;2.266;2022-08-04T20:00:53;24.32;60.74
73149;SHT30;61346;48.930;2.266;2022-08-04T20:03:42;24.26;60.34
73149;SHT30;61346;48.930;2.266;2022-08-04T20:06:18;24.22;60.37
73149;SHT30;61346;48.930;2.266;2022-08-04T20:08:56;24.19;60.39
73149;SHT30;61346;48.930;2.266;2022-08-04T20:11:27;24.16;60.55
73149;SHT30;61346;48.930;2.266;2022-08-04T20:14:06;24.12;60.38
73149;SHT30;61346;48.930;2.266;2022-08-04T20:16:55;24.13;60.25
73149;SHT30;61346;48.930;2.266;2022-08-04T20:19:26;24.16;60.51
73149;SHT30;61346;48.930;2.266;2022-08-04T20:22:47;24.13;60.20
73149;SHT30;61346;48.930;2.266;2022-08-04T20:25:04;24.13;59.64
73149;SHT30;61346;48.930;2.266;2022-08-04T20:27:49;24.01;59.61
73149;SHT30;61346;48.930;2.266;2022-08-04T20:30:38;23.94;59.56
73149;SHT30;61346;48.930;2.266;2022-08-04T20:33:32;23.89;59.68
73149;SHT30;61346;48.930;2.266;2022-08-04T20:39:30;23.86;59.53
73149;SHT30;61346;48.930;2.266;2022-08-04T20:41:56;23.84;59.36
73149;SHT30;61346;48.930;2.266;2022-08-04T20:44:22;23.82;59.46
73149;SHT30;61346;48.930;2.266;2022-08-04T20:46:47;23.78;59.42
73149;SHT30;61346;48.930;2.266;2022-08-04T20:49:13;23.75;59.12
73149;SHT30;61346;48.930;2.266;2022-08-04T20:51:39;23.71;59.11
73149;SHT30;61346;48.930;2.266;2022-08-04T20:54:08;23.69;59.08
73149;SHT30;61346;48.930;2.266;2022-08-04T20:56:34;23.67;58.99
73149;SHT30;61346;48.930;2.266;2022-08-04T20:59:00;23.67;59.06
73149;SHT30;61346;48.930;2.266;2022-08-04T21:01:27;23.64;59.20
73149;SHT30;61346;48.930;2.266;2022-08-04T21:03:52;23.64;59.27
73149;SHT30;61346;48.930;2.266;2022-08-04T21:06:37;23.62;59.14
73149;SHT30;61346;48.930;2.266;2022-08-04T21:09:03;23.61;58.97
73149;SHT30;61346;48.930;2.266;2022-08-04T21:11:28;23.61;59.06
73149;SHT30;61346;48.930;2.266;2022-08-04T21:13:53;23.62;58.90
73149;SHT30;61346;48.930;2.266;2022-08-04T21:16:19;23.62;58.84
73149;SHT30;61346;48.930;2.266;2022-08-04T21:18:46;23.64;58.83
73149;SHT30;61346;48.930;2.266;2022-08-04T21:21:11;23.58;58.74
73149;SHT30;61346;48.930;2.266;2022-08-04T21:23:38;23.49;58.83
73149;SHT30;61346;48.930;2.266;2022-08-04T21:26:03;23.43;58.99
73149;SHT30;61346;48.930;2.266;2022-08-04T21:28:33;23.39;58.85
73149;SHT30;61346;48.930;2.266;2022-08-04T21:31:02;23.40;59.04
73149;SHT30;61346;48.930;2.266;2022-08-04T21:33:28;23.37;58.86
73149;SHT30;61346;48.930;2.266;2022-08-04T21:35:53;23.36;58.60
73149;SHT30;61346;48.930;2.266;2022-08-04T21:38:20;23.34;58.71
73149;SHT30;61346;48.930;2.266;2022-08-04T21:40:52;23.33;58.66
73149;SHT30;61346;48.930;2.266;2022-08-04T21:43:20;23.33;58.50
73149;SHT30;61346;48.930;2.266;2022-08-04T21:45:45;23.33;58.58
73149;SHT30;61346;48.930;2.266;2022-08-04T21:48:11;23.34;58.50
73149;SHT30;61346;48.930;2.266;2022-08-04T21:50:36;23.26;58.55
73149;SHT30;61346;48.930;2.266;2022-08-04T21:53:03;23.24;58.63
73149;SHT30;61346;48.930;2.266;2022-08-04T21:55:29;23.30;58.86
73149;SHT30;61346;48.930;2.266;2022-08-04T21:57:54;23.26;65.77
73149;SHT30;61346;48.930;2.266;2022-08-04T22:00:20;23.26;59.91
73149;SHT30;61346;48.930;2.266;2022-08-04T22:02:46;23.20;60.78
73149;SHT30;61346;48.930;2.266;2022-08-04T22:05:14;23.10;62.89
73149;SHT30;61346;48.930;2.266;2022-08-04T22:07:40;22.81;63.89
73149;SHT30;61346;48.930;2.266;2022-08-04T22:10:06;22.64;62.81
73149;SHT30;61346;48.930;2.266;2022-08-04T22:12:33;22.52;64.71
73149;SHT30;61346;48.930;2.266;2022-08-04T22:14:58;22.45;63.79
73149;SHT30;61346;48.930;2.266;2022-08-04T22:17:24;22.45;65.55
73149;SHT30;61346;48.930;2.266;2022-08-04T22:19:50;22.37;64.83
73149;SHT30;61346;48.930;2.266;2022-08-04T22:22:16;22.21;67.64
73149;SHT30;61346;48.930;2.266;2022-08-04T22:24:41;22.00;70.34
73149;SHT30;61346;48.930;2.266;2022-08-04T22:27:11;21.74;71.71
73149;SHT30;61346;48.930;2.266;2022-08-04T22:29:37;21.65;71.92
73149;SHT30;61346;48.930;2.266;2022-08-04T22:32:03;21.51;72.45
73149;SHT30;61346;48.930;2.266;2022-08-04T22:34:28;21.42;72.96
73149;SHT30;61346;48.930;2.266;2022-08-04T22:36:54;21.39;71.83
73149;SHT30;61346;48.930;2.266;2022-08-04T22:39:20;21.35;71.67
73149;SHT30;61346;48.930;2.266;2022-08-04T22:41:46;21.37;71.93
73149;SHT30;61346;48.930;2.266;2022-08-04T22:44:12;21.39;71.82
73149;SHT30;61346;48.930;2.266;2022-08-04T22:46:38;21.51;69.51
73149;SHT30;61346;48.930;2.266;2022-08-04T22:49:03;21.68;69.14
73149;SHT30;61346;48.930;2.266;2022-08-04T22:51:29;21.82;67.68
73149;SHT30;61346;48.930;2.266;2022-08-04T22:53:54;21.89;67.19
73149;SHT30;61346;48.930;2.266;2022-08-04T22:56:19;21.97;66.88
73149;SHT30;61346;48.930;2.266;2022-08-04T22:58:45;22.00;67.09
73149;SHT30;61346;48.930;2.266;2022-08-04T23:01:12;22.04;67.27
73149;SHT30;61346;48.930;2.266;2022-08-04T23:03:38;22.03;66.65
73149;SHT30;61346;48.930;2.266;2022-08-04T23:06:08;22.03;66.88
73149;SHT30;61346;48.930;2.266;2022-08-04T23:08:34;22.02;67.22
73149;SHT30;61346;48.930;2.266;2022-08-04T23:11:00;22.03;67.20
73149;SHT30;61346;48.930;2.266;2022-08-04T23:13:25;22.02;67.57
73149;SHT30;61346;48.930;2.266;2022-08-04T23:15:50;21.92;70.27
73149;SHT30;61346;48.930;2.266;2022-08-04T23:18:17;21.66;70.17
73149;SHT30;61346;48.930;2.266;2022-08-04T23:20:43;21.49;71.98
73149;SHT30;61346;48.930;2.266;2022-08-04T23:23:08;21.37;72.74
73149;SHT30;61346;48.930;2.266;2022-08-04T23:25:34;21.26;74.21
73149;SHT30;61346;48.930;2.266;2022-08-04T23:27:59;21.00;82.21
73149;SHT30;61346;48.930;2.266;2022-08-04T23:30:25;20.84;82.63
73149;SHT30;61346;48.930;2.266;2022-08-04T23:32:51;20.69;82.36
73149;SHT30;61346;48.930;2.266;2022-08-04T23:35:17;20.41;92.26
73149;SHT30;61346;48.930;2.266;2022-08-04T23:37:43;20.16;92.46
73149;SHT30;61346;48.930;2.266;2022-08-04T23:40:09;20.06;92.01